createdAt,value
2023-04-02T00:02:21.504Z,5.20
2023-04-02T00:05:31.728Z,3.47
2023-04-02T00:08:03.517Z,3.17
2023-04-02T00:10:38.462Z,3.83
2023-04-02T00:13:12.068Z,7.40
2023-04-02T00:15:46.055Z,5.90
2023-04-02T00:18:22.861Z,2.77
2023-04-02T00:21:12.654Z,4.70
2023-04-02T00:23:42.301Z,6.67
2023-04-02T00:26:42.596Z,3.47
2023-04-02T00:29:14.253Z,5.40
2023-04-02T00:31:50.417Z,4.40
2023-04-02T00:34:33.959Z,5.77
2023-04-02T00:37:01.995Z,3.53
2023-04-02T00:39:33.164Z,3.30
2023-04-02T00:42:06.924Z,2.23
2023-04-02T00:44:43.278Z,4.47
2023-04-02T00:47:27.107Z,4.43
2023-04-02T00:50:27.461Z,4.53
2023-04-02T00:52:56.946Z,4.30
2023-04-02T00:55:50.310Z,4.83
2023-04-02T00:58:33.072Z,3.03
2023-04-02T01:01:01.282Z,2.93
2023-04-02T01:03:35.470Z,3.17
2023-04-02T01:06:16.860Z,3.07
2023-04-02T01:08:52.207Z,5.83
2023-04-02T01:11:56.662Z,3.07
2023-04-02T01:14:54.433Z,3.10
2023-04-02T01:17:43.199Z,3.03
2023-04-02T01:20:23.135Z,3.80
2023-04-02T01:23:24.304Z,2.73
2023-04-02T01:26:03.683Z,3.00
2023-04-02T01:28:58.213Z,2.33
2023-04-02T01:31:27.615Z,5.80
2023-04-02T01:33:55.507Z,5.00
2023-04-02T01:36:41.257Z,3.23
2023-04-02T01:39:33.271Z,3.90
2023-04-02T01:42:29.010Z,4.47
2023-04-02T01:45:15.254Z,4.30
2023-04-02T01:47:44.334Z,3.33
2023-04-02T01:50:31.958Z,4.97
2023-04-02T01:53:05.288Z,8.67
2023-04-02T01:55:47.089Z,4.73
2023-04-02T01:58:18.458Z,2.87
2023-04-02T02:00:54.697Z,4.40
2023-04-02T02:03:22.695Z,4.50
2023-04-02T02:05:50.962Z,4.77
2023-04-02T02:08:33.112Z,4.47
2023-04-02T02:11:00.892Z,5.03
2023-04-02T02:13:28.036Z,3.37
2023-04-02T02:16:01.760Z,5.57
2023-04-02T02:18:29.547Z,3.57
2023-04-02T02:20:59.798Z,6.70
2023-04-02T02:23:30.001Z,4.67
2023-04-02T02:25:57.195Z,7.90
2023-04-02T02:28:29.625Z,6.83
2023-04-02T02:31:02.864Z,4.83
2023-04-02T02:33:47.093Z,4.37
2023-04-02T02:36:20.089Z,5.73
2023-04-02T02:38:57.030Z,5.70
2023-04-02T02:41:45.128Z,3.97
2023-04-02T02:44:18.830Z,3.57
2023-04-02T02:46:55.240Z,8.33
2023-04-02T02:49:28.480Z,4.37
2023-04-02T02:52:10.722Z,2.83
2023-04-02T02:54:43.605Z,3.43
2023-04-02T02:57:15.062Z,4.70
2023-04-02T02:59:43.133Z,5.97
2023-04-02T03:02:10.452Z,5.33
2023-04-02T03:04:40.769Z,5.47
2023-04-02T03:07:09.324Z,4.77
2023-04-02T03:09:48.602Z,1.87
2023-04-02T03:12:45.827Z,4.53
2023-04-02T03:15:19.357Z,4.50
2023-04-02T03:17:52.178Z,5.23
2023-04-02T03:20:36.709Z,3.87
2023-04-02T03:23:24.413Z,4.10
2023-04-02T03:26:28.133Z,10.00
2023-04-02T03:29:11.902Z,6.00
2023-04-02T03:32:07.501Z,3.93
2023-04-02T03:34:57.931Z,3.63
2023-04-02T03:37:52.659Z,3.00
2023-04-02T03:40:24.895Z,4.07
2023-04-02T03:42:58.293Z,6.30
2023-04-02T03:45:29.504Z,2.67
2023-04-02T03:48:22.072Z,2.03
2023-04-02T03:51:03.017Z,2.77
2023-04-02T03:53:32.392Z,2.53
2023-04-02T03:56:01.003Z,3.43
2023-04-02T03:58:47.154Z,6.30
2023-04-02T04:01:42.450Z,4.90
2023-04-02T04:04:16.303Z,2.93
2023-04-02T04:06:45.849Z,4.77
2023-04-02T04:09:33.073Z,6.20
2023-04-02T04:12:13.987Z,4.80
2023-04-02T04:14:46.314Z,5.40
2023-04-02T04:17:41.217Z,3.63
2023-04-02T04:20:17.767Z,3.97
2023-04-02T04:22:49.946Z,3.10
2023-04-02T04:25:31.071Z,5.17
2023-04-02T04:28:28.382Z,4.90
2023-04-02T04:31:18.180Z,3.80
2023-04-02T04:33:50.855Z,4.63
2023-04-02T04:36:28.931Z,2.50
2023-04-02T04:39:04.529Z,5.57
2023-04-02T04:41:37.819Z,1.70
2023-04-02T04:44:17.469Z,5.20
2023-04-02T04:47:00.485Z,1.60
2023-04-02T04:49:48.157Z,2.97
2023-04-02T04:52:26.608Z,3.43
2023-04-02T04:54:53.918Z,5.37
2023-04-02T04:57:37.263Z,8.33
2023-04-02T05:00:41.141Z,3.53
2023-04-02T05:03:18.142Z,3.27
2023-04-02T05:05:46.507Z,2.37
2023-04-02T05:08:28.618Z,2.33
2023-04-02T05:11:01.322Z,3.27
2023-04-02T05:13:35.396Z,4.37
2023-04-02T05:16:14.922Z,1.53
2023-04-02T05:19:10.512Z,3.67
2023-04-02T05:22:14.079Z,1.73
2023-04-02T05:24:55.204Z,2.93
2023-04-02T05:27:34.220Z,2.37
2023-04-02T05:30:29.476Z,2.07
2023-04-02T05:33:24.761Z,2.27
2023-04-02T05:36:00.045Z,1.27
2023-04-02T05:38:29.976Z,1.47
2023-04-02T05:41:06.222Z,3.17
2023-04-02T05:43:36.840Z,3.50
2023-04-02T05:46:15.641Z,4.13
2023-04-02T05:48:44.839Z,2.60
2023-04-02T05:51:28.884Z,3.77
2023-04-02T05:54:00.007Z,2.17
2023-04-02T05:56:36.690Z,2.33
2023-04-02T05:59:08.457Z,4.07
2023-04-02T06:01:49.590Z,1.90
2023-04-02T06:04:19.494Z,2.30
2023-04-02T06:06:51.797Z,1.90
2023-04-02T06:09:44.671Z,5.07
2023-04-02T06:12:47.180Z,2.10
2023-04-02T06:15:19.039Z,3.03
2023-04-02T06:18:06.654Z,2.23
2023-04-02T06:20:34.213Z,1.67
2023-04-02T06:23:13.034Z,1.90
2023-04-02T06:25:42.454Z,2.10
2023-04-02T06:28:42.926Z,1.70
2023-04-02T06:31:18.915Z,2.03
2023-04-02T06:33:46.142Z,1.80
2023-04-02T06:36:13.617Z,1.70
2023-04-02T06:38:41.808Z,1.57
2023-04-02T06:41:20.083Z,2.00
2023-04-02T06:43:56.477Z,2.13
2023-04-02T06:46:27.725Z,3.30
2023-04-02T06:49:05.121Z,2.07
2023-04-02T06:51:34.576Z,3.63
2023-04-02T06:54:01.806Z,1.93
2023-04-02T06:56:45.678Z,3.03
2023-04-02T06:59:14.135Z,1.67
2023-04-02T07:01:44.265Z,2.43
2023-04-02T07:04:12.026Z,3.47
2023-04-02T07:06:39.302Z,2.23
2023-04-02T07:09:07.065Z,2.13
2023-04-02T07:11:34.838Z,2.23
2023-04-02T07:14:02.039Z,3.17
2023-04-02T07:16:32.794Z,2.77
2023-04-02T07:19:00.564Z,2.33
2023-04-02T07:21:28.137Z,3.23
2023-04-02T07:23:55.943Z,1.73
2023-04-02T07:26:27.725Z,2.00
2023-04-02T07:28:56.336Z,2.20
2023-04-02T07:31:26.063Z,1.97
2023-04-02T07:33:55.810Z,2.50
2023-04-02T07:36:24.046Z,2.90
2023-04-02T07:38:51.528Z,3.90
2023-04-02T07:41:19.821Z,1.67
2023-04-02T07:43:48.127Z,2.13
2023-04-02T07:46:18.150Z,3.30
2023-04-02T07:48:46.070Z,2.87
2023-04-02T07:51:22.110Z,4.27
2023-04-02T07:53:51.276Z,3.13
2023-04-02T07:56:21.717Z,3.90
2023-04-02T07:58:51.791Z,2.27
2023-04-02T08:01:29.547Z,2.03
2023-04-02T08:03:58.192Z,1.50
2023-04-02T08:06:26.017Z,2.37
2023-04-02T08:08:53.577Z,1.93
2023-04-02T08:11:20.970Z,4.23
2023-04-02T08:13:48.215Z,4.10
2023-04-02T08:16:15.599Z,3.40
2023-04-02T08:18:42.924Z,1.90
2023-04-02T08:21:11.353Z,3.03
2023-04-02T08:23:38.730Z,3.50
2023-04-02T08:26:18.433Z,2.07
2023-04-02T08:28:56.241Z,2.53
2023-04-02T08:31:33.600Z,2.67
2023-04-02T08:34:02.439Z,2.87
2023-04-02T08:36:33.281Z,3.80
2023-04-02T08:39:11.863Z,2.07
2023-04-02T08:41:58.583Z,2.80
2023-04-02T08:44:47.337Z,2.03
2023-04-02T08:47:19.402Z,1.75
2023-04-02T08:50:19.705Z,1.45
2023-04-02T08:52:46.940Z,1.40
2023-04-02T08:55:26.289Z,1.90
2023-04-02T08:58:25.986Z,1.48
2023-04-02T09:00:56.433Z,1.17
2023-04-02T09:03:32.084Z,1.02
2023-04-02T09:06:03.965Z,1.10
2023-04-02T09:08:32.785Z,1.25
2023-04-02T09:11:06.891Z,1.45
2023-04-02T09:13:37.795Z,1.73
2023-04-02T09:16:14.756Z,1.13
2023-04-02T09:18:43.905Z,2.10
2023-04-02T09:21:28.968Z,1.52
2023-04-02T09:23:56.217Z,1.80
2023-04-02T09:26:28.851Z,1.50
2023-04-02T09:29:14.280Z,1.00
2023-04-02T09:31:50.929Z,1.43
2023-04-02T09:34:33.037Z,2.37
2023-04-02T09:37:19.894Z,0.97
2023-04-02T09:39:47.403Z,1.20
2023-04-02T09:42:29.812Z,0.70
2023-04-02T09:45:24.438Z,1.33
2023-04-02T09:47:54.155Z,0.50
2023-04-02T09:50:21.581Z,0.57
2023-04-02T09:52:50.240Z,0.83
2023-04-02T09:55:27.331Z,1.33
2023-04-02T09:58:12.238Z,0.97
2023-04-02T10:00:41.738Z,0.60
2023-04-02T10:03:27.847Z,0.67
2023-04-02T10:06:13.266Z,1.27
2023-04-02T10:08:43.124Z,1.20
2023-04-02T10:11:46.381Z,1.27
2023-04-02T10:14:22.889Z,1.70
2023-04-02T10:16:58.163Z,1.23
2023-04-02T10:19:39.357Z,1.87
2023-04-02T10:22:15.219Z,0.70
2023-04-02T10:24:42.759Z,0.50
2023-04-02T10:27:28.873Z,1.53
2023-04-02T10:30:38.872Z,0.73
2023-04-02T10:33:30.092Z,0.77
2023-04-02T10:36:22.907Z,0.90
2023-04-02T10:39:16.163Z,0.73
2023-04-02T10:41:57.295Z,0.80
2023-04-02T10:44:37.592Z,0.60
2023-04-02T10:47:37.907Z,1.23
2023-04-02T10:50:44.862Z,0.83
2023-04-02T10:53:21.023Z,1.57
2023-04-02T10:56:03.709Z,0.57
2023-04-02T10:58:35.463Z,0.77
2023-04-02T11:01:13.567Z,0.60
2023-04-02T11:03:49.058Z,0.60
2023-04-02T11:06:21.960Z,0.90
2023-04-02T11:08:54.242Z,0.70
2023-04-02T11:11:52.340Z,3.27
2023-04-02T11:14:26.522Z,1.10
2023-04-02T11:16:58.396Z,0.67
2023-04-02T11:19:35.041Z,0.83
2023-04-02T11:22:26.006Z,1.37
2023-04-02T11:24:57.515Z,0.77
2023-04-02T11:27:31.664Z,0.77
2023-04-02T11:30:05.561Z,1.17
2023-04-02T11:32:37.260Z,1.07
2023-04-02T11:35:30.822Z,1.47
2023-04-02T11:38:01.092Z,0.77
2023-04-02T11:40:44.776Z,0.50
2023-04-02T11:43:34.217Z,1.20
2023-04-02T11:46:13.016Z,0.70
2023-04-02T11:48:41.062Z,1.70
2023-04-02T11:51:31.152Z,0.60
2023-04-02T11:53:58.763Z,1.10
2023-04-02T11:56:29.180Z,1.60
2023-04-02T11:59:29.643Z,1.13
2023-04-02T12:02:38.237Z,2.10
2023-04-02T12:05:27.511Z,0.80
2023-04-02T12:08:12.867Z,2.27
2023-04-02T12:10:55.122Z,1.23
2023-04-02T12:13:42.519Z,1.00
2023-04-02T12:16:13.947Z,1.63
2023-04-02T12:18:46.986Z,0.70
2023-04-02T12:21:19.609Z,1.40
2023-04-02T12:23:54.375Z,1.07
2023-04-02T12:26:32.251Z,0.70
2023-04-02T12:29:29.469Z,0.97
2023-04-02T12:31:59.073Z,0.90
2023-04-02T12:34:29.470Z,0.60
2023-04-02T12:37:05.587Z,1.37
2023-04-02T12:39:34.635Z,0.90
2023-04-02T12:42:02.199Z,0.90
2023-04-02T12:44:31.474Z,1.03
2023-04-02T12:46:59.859Z,1.77
2023-04-02T12:49:42.971Z,1.83
2023-04-02T12:52:22.401Z,1.47
2023-04-02T12:54:58.957Z,1.10
2023-04-02T12:57:30.039Z,1.93
2023-04-02T13:00:06.702Z,0.70
2023-04-02T13:02:49.285Z,1.73
2023-04-02T13:05:39.720Z,1.60
2023-04-02T13:08:15.233Z,1.53
2023-04-02T13:10:44.516Z,1.70
2023-04-02T13:13:27.566Z,1.23
2023-04-02T13:16:07.097Z,1.37
2023-04-02T13:18:51.327Z,0.97
2023-04-02T13:21:24.180Z,0.90
2023-04-02T13:23:54.119Z,2.50
2023-04-02T13:26:24.909Z,1.27
2023-04-02T13:29:25.173Z,1.03
2023-04-02T13:31:56.090Z,1.37
2023-04-02T13:34:24.085Z,2.43
2023-04-02T13:36:51.772Z,0.67
2023-04-02T13:39:21.393Z,0.83
2023-04-02T13:41:57.118Z,0.80
2023-04-02T13:44:32.877Z,0.90
2023-04-02T13:47:02.531Z,1.40
2023-04-02T13:49:30.716Z,0.93
2023-04-02T13:52:05.486Z,0.80
2023-04-02T13:54:41.899Z,0.70
2023-04-02T13:57:09.332Z,1.03
2023-04-02T13:59:36.680Z,2.93
2023-04-02T14:02:11.200Z,1.83
2023-04-02T14:05:17.528Z,1.47
2023-04-02T14:08:17.550Z,1.07
2023-04-02T14:11:07.543Z,2.43
2023-04-02T14:14:09.998Z,0.63
2023-04-02T14:17:19.731Z,1.90
2023-04-02T14:20:21.991Z,1.23
2023-04-02T14:23:10.558Z,2.20
2023-04-02T14:26:12.139Z,1.43
2023-04-02T14:28:57.888Z,2.23
2023-04-02T14:31:42.852Z,1.73
2023-04-02T14:34:37.550Z,1.10
2023-04-02T14:37:26.946Z,1.33
2023-04-02T14:40:11.026Z,1.27
2023-04-02T14:42:59.565Z,2.73
2023-04-02T14:45:46.165Z,1.53
2023-04-02T14:48:23.154Z,0.90
2023-04-02T14:51:06.039Z,3.47
2023-04-02T14:54:02.341Z,2.20
2023-04-02T14:56:47.814Z,1.03
2023-04-02T15:00:05.448Z,1.90
2023-04-02T15:02:48.464Z,3.03
2023-04-02T15:05:38.407Z,2.20
2023-04-02T15:08:15.871Z,1.07
2023-04-02T15:10:56.379Z,1.50
2023-04-02T15:13:31.852Z,2.83
2023-04-02T15:16:11.594Z,2.53
2023-04-02T15:18:39.663Z,2.10
2023-04-02T15:21:20.023Z,1.50
2023-04-02T15:24:11.217Z,1.20
2023-04-02T15:27:29.226Z,1.10
2023-04-02T15:30:15.205Z,1.97
2023-04-02T15:32:44.257Z,1.17
2023-04-02T15:35:33.812Z,1.67
2023-04-02T15:38:21.898Z,2.67
2023-04-02T15:41:16.374Z,2.47
2023-04-02T15:44:02.495Z,1.33
2023-04-02T15:46:48.357Z,0.80
2023-04-02T15:50:11.646Z,0.93
2023-04-02T15:53:30.368Z,1.87
2023-04-02T15:56:38.809Z,1.57
2023-04-02T15:59:32.242Z,1.63
2023-04-02T16:02:20.150Z,2.47
2023-04-02T16:05:27.565Z,1.50
2023-04-02T16:08:03.674Z,1.33
2023-04-02T16:10:41.861Z,3.13
2023-04-02T16:13:33.415Z,0.87
2023-04-02T16:16:37.924Z,1.87
2023-04-02T16:19:33.916Z,2.07
2023-04-02T16:22:29.992Z,1.60
2023-04-02T16:25:23.215Z,2.77
2023-04-02T16:28:08.728Z,2.43
2023-04-02T16:31:07.124Z,4.90
2023-04-02T16:33:54.150Z,3.30
2023-04-02T16:36:25.954Z,1.20
2023-04-02T16:39:18.713Z,1.90
2023-04-02T16:42:14.542Z,2.53
2023-04-02T16:45:05.285Z,3.17
2023-04-02T16:47:50.955Z,1.73
2023-04-02T16:50:48.264Z,1.03
2023-04-02T16:53:50.932Z,2.80
2023-04-02T16:56:52.265Z,1.30
2023-04-02T16:59:32.210Z,1.80
2023-04-02T17:02:21.769Z,1.17
2023-04-02T17:04:59.048Z,2.43
2023-04-02T17:07:34.699Z,1.80
2023-04-02T17:10:23.979Z,2.07
2023-04-02T17:13:18.390Z,1.87
2023-04-02T17:16:12.566Z,2.53
2023-04-02T17:18:47.869Z,1.30
2023-04-02T17:21:26.250Z,1.10
2023-04-02T17:24:19.526Z,4.03
2023-04-02T17:26:53.540Z,1.90
2023-04-02T17:29:31.823Z,1.17
2023-04-02T17:32:15.395Z,1.60
2023-04-02T17:34:44.929Z,3.23
2023-04-02T17:37:26.610Z,2.97
2023-04-02T17:40:19.384Z,3.67
2023-04-02T17:43:34.765Z,3.63
2023-04-02T17:46:31.761Z,1.70
2023-04-02T17:49:06.420Z,3.77
2023-04-02T17:51:45.941Z,2.00
2023-04-02T17:54:39.951Z,2.27
2023-04-02T17:57:25.608Z,2.60
2023-04-02T18:00:04.260Z,2.33
2023-04-02T18:02:46.817Z,2.43
2023-04-02T18:05:17.311Z,3.20
2023-04-02T18:07:53.998Z,2.53
2023-04-02T18:10:28.670Z,4.70
2023-04-02T18:13:20.626Z,3.23
2023-04-02T18:16:15.482Z,2.53
2023-04-02T18:19:03.020Z,3.07
2023-04-02T18:21:53.247Z,1.50
2023-04-02T18:24:34.394Z,2.93
2023-04-02T18:27:42.200Z,2.90
2023-04-02T18:30:32.622Z,4.07
2023-04-02T18:33:13.690Z,2.40
2023-04-02T18:36:01.785Z,3.67
2023-04-02T18:38:55.064Z,1.80
2023-04-02T18:42:01.105Z,3.07
2023-04-02T18:45:13.433Z,4.10
2023-04-02T18:47:55.860Z,3.13
2023-04-02T18:50:37.631Z,1.80
2023-04-02T18:53:14.957Z,1.37
2023-04-02T18:55:52.632Z,2.77
2023-04-02T18:58:46.144Z,1.63
2023-04-02T19:01:26.482Z,2.50
2023-04-02T19:04:03.055Z,3.60
2023-04-02T19:07:04.046Z,4.43
2023-04-02T19:09:37.233Z,3.80
2023-04-02T19:12:21.201Z,4.90
2023-04-02T19:14:52.396Z,3.73
2023-04-02T19:17:45.360Z,2.70
2023-04-02T19:20:43.700Z,2.47
2023-04-02T19:23:37.778Z,2.43
2023-04-02T19:26:15.887Z,1.73
2023-04-02T19:28:59.936Z,2.90
2023-04-02T19:31:44.352Z,3.87
2023-04-02T19:34:23.584Z,2.63
2023-04-02T19:37:07.521Z,4.23
2023-04-02T19:40:03.096Z,2.93
2023-04-02T19:43:10.331Z,3.50
2023-04-02T19:45:45.951Z,5.23
2023-04-02T19:48:39.842Z,4.03
2023-04-02T19:51:07.344Z,3.00
2023-04-02T19:53:35.520Z,3.80
2023-04-02T19:56:03.445Z,1.50
2023-04-02T19:58:33.613Z,4.73
2023-04-02T20:01:01.885Z,2.17
2023-04-02T20:03:30.599Z,3.93
2023-04-02T20:05:59.989Z,3.67
2023-04-02T20:08:28.618Z,4.87
2023-04-02T20:10:59.573Z,4.57
2023-04-02T20:13:27.848Z,2.50
2023-04-02T20:15:59.691Z,2.90
2023-04-02T20:18:28.451Z,2.23
2023-04-02T20:20:56.199Z,3.33
2023-04-02T20:23:24.361Z,1.83
2023-04-02T20:25:55.392Z,2.87
2023-04-02T20:28:24.752Z,4.87
2023-04-02T20:30:53.839Z,3.13
2023-04-02T20:33:26.201Z,2.57
2023-04-02T20:36:01.521Z,2.77
2023-04-02T20:38:29.532Z,1.90
2023-04-02T20:41:02.321Z,5.60
2023-04-02T20:43:30.713Z,3.50
2023-04-02T20:46:01.269Z,4.27
2023-04-02T20:48:32.938Z,3.53
2023-04-02T20:51:02.360Z,3.30
2023-04-02T20:53:31.830Z,1.20
2023-04-02T20:56:16.093Z,3.27
2023-04-02T20:58:44.659Z,4.00
2023-04-02T21:01:13.636Z,3.60
2023-04-02T21:03:41.284Z,2.70
2023-04-02T21:06:20.572Z,3.27
2023-04-02T21:08:49.157Z,1.83
2023-04-02T21:11:17.470Z,3.77
2023-04-02T21:13:45.666Z,2.60
2023-04-02T21:16:23.148Z,2.23
2023-04-02T21:18:52.914Z,3.23
2023-04-02T21:21:21.336Z,4.33
2023-04-02T21:23:53.703Z,4.47
2023-04-02T21:26:21.298Z,2.37
2023-04-02T21:28:48.960Z,5.03
2023-04-02T21:31:19.465Z,7.57
2023-04-02T21:33:50.128Z,2.57
2023-04-02T21:36:27.931Z,3.97
2023-04-02T21:38:59.588Z,2.70
2023-04-02T21:41:35.185Z,5.53
2023-04-02T21:44:04.917Z,3.37
2023-04-02T21:46:36.487Z,2.93
2023-04-02T21:49:04.776Z,4.97
2023-04-02T21:51:33.827Z,3.00
2023-04-02T21:54:02.019Z,2.40
2023-04-02T21:56:48.684Z,2.30
2023-04-02T21:59:17.497Z,6.00
2023-04-02T22:01:49.316Z,3.73
2023-04-02T22:04:21.958Z,3.40
2023-04-02T22:06:50.518Z,4.07
2023-04-02T22:09:21.394Z,7.73
2023-04-02T22:12:00.558Z,4.37
2023-04-02T22:14:28.373Z,3.07
2023-04-02T22:16:56.272Z,5.57
2023-04-02T22:19:23.819Z,2.87
2023-04-02T22:21:52.920Z,3.80
2023-04-02T22:24:25.320Z,4.73
2023-04-02T22:26:54.286Z,3.40
2023-04-02T22:29:25.399Z,3.90
2023-04-02T22:31:52.804Z,3.23
2023-04-02T22:34:21.253Z,2.83
2023-04-02T22:36:48.779Z,3.17
2023-04-02T22:39:17.230Z,4.13
2023-04-02T22:41:44.852Z,3.53
2023-04-02T22:44:15.130Z,4.30
2023-04-02T22:46:42.622Z,7.07
2023-04-02T22:49:11.944Z,4.90
2023-04-02T22:51:39.504Z,4.30
2023-04-02T22:54:09.345Z,5.43
2023-04-02T22:56:37.790Z,4.83
2023-04-02T22:59:06.060Z,3.13
2023-04-02T23:01:35.801Z,4.80
2023-04-02T23:04:05.473Z,8.27
2023-04-02T23:06:33.498Z,3.83
2023-04-02T23:09:01.143Z,2.10
2023-04-02T23:11:28.890Z,4.13
2023-04-02T23:13:58.005Z,4.30
2023-04-02T23:16:28.369Z,3.93
2023-04-02T23:18:56.683Z,6.23
2023-04-02T23:21:24.438Z,5.43
2023-04-02T23:23:51.964Z,2.17
2023-04-02T23:26:26.749Z,3.03
2023-04-02T23:28:54.272Z,6.33
2023-04-02T23:31:23.237Z,2.83
2023-04-02T23:33:52.296Z,3.73
2023-04-02T23:36:26.030Z,4.13
2023-04-02T23:38:55.784Z,5.00
2023-04-02T23:41:25.110Z,4.73
2023-04-02T23:43:52.919Z,3.90
2023-04-02T23:46:20.788Z,3.67
2023-04-02T23:48:51.084Z,4.73
2023-04-02T23:51:19.329Z,3.87
2023-04-02T23:53:47.050Z,2.93
2023-04-02T23:56:14.609Z,4.43
2023-04-02T23:58:42.096Z,5.17
